CYSN

St Catharines / Niagara District Airport

St Catharines, , Canada
METAR CYSN 250000Z 07003KT 6SM -RA BR OVC057 11/11 A3006 RMK SC8 SLP182
Observed Flight Rules
Apr-25 @ 00:00 UTC (46 minutes ago) Visual Flight Rules
Wind Visibility Clouds Conditions
70° at 3 knots 6 miles
  • Overcast at 5,700' AGL
  • Light Rain
  • Mist
Temperatures Readings
Current 11°C / 52°F
Dewpoint 11°C / 52°F
Humidity 100%
Altimeter 30.06" Hg
Pressure 1018.2 hPa
Elevation 98
METAR CYSN 250000Z 07003KT 6SM -RA BR OVC057 11/11 A3006 RMK SC8 SLP182
Observed Flight Rules
Apr-25 @ 00:00 UTC
(46 minutes ago)
VFR
Wind Visibility
70° at 3 knots 6 miles
Clouds
  • Overcast at 5,700' AGL
Conditions
  • Light Rain
  • Mist
Temperature Dewpoint
11°C / 52°F 11°C / 52°F
Humidity Altimeter Pressure
100% 30.06" Hg 1018.2 hPa